Time;durP1;ratioP1;P1;durP2;ratioP2;P2;SDS_P1;SDS_P2;PMS_P1;PMS_P2;Temp;Humidity;BMP_temperature;BMP_pressure;BME280_temperature;BME280_humidity;BME280_pressure;Samples;Min_cycle;Max_cycle;Signal;HPM_P1;HPM_P2
2022/06/05 00:00:24;;;;;;;10.02;7.88;;;18.30;99.90;;;;;;5059676;28;20033;-63
2022/06/05 00:03:15;;;;;;;11.45;7.70;;;18.30;99.90;;;;;;5068535;28;20031;-63
2022/06/05 00:06:11;;;;;;;9.75;8.35;;;18.20;99.90;;;;;;5052055;28;20064;-63
2022/06/05 00:08:54;;;;;;;8.35;7.20;;;18.20;99.90;;;;;;5062249;28;20009;-63
2022/06/05 00:11:21;;;;;;;13.02;8.82;;;18.20;99.90;;;;;;5061705;28;20025;-64
2022/06/05 00:13:55;;;;;;;9.57;7.80;;;18.20;99.90;;;;;;5065611;28;20065;-63
2022/06/05 00:16:25;;;;;;;10.00;8.50;;;18.20;99.90;;;;;;5066717;28;20035;-63
2022/06/05 00:18:51;;;;;;;9.40;8.05;;;18.20;99.90;;;;;;5062027;28;20398;-63
2022/06/05 00:21:17;;;;;;;11.25;8.10;;;18.20;99.90;;;;;;5059265;28;20052;-63
2022/06/05 00:23:43;;;;;;;10.00;7.78;;;18.20;99.90;;;;;;5057187;28;20059;-63
2022/06/05 00:26:21;;;;;;;9.68;8.68;;;18.10;99.90;;;;;;5065865;28;20020;-63
2022/06/05 00:29:09;;;;;;;12.98;9.18;;;18.10;99.90;;;;;;5068122;28;20120;-63
2022/06/05 00:32:15;;;;;;;11.13;9.18;;;17.90;99.90;;;;;;5057387;28;20028;-63
2022/06/05 00:34:42;;;;;;;10.70;8.18;;;17.90;99.90;;;;;;5028821;28;20112;-63
2022/06/05 00:37:32;;;;;;;9.63;8.45;;;17.80;99.90;;;;;;5047862;28;20041;-63
2022/06/05 00:40:19;;;;;;;9.55;8.45;;;17.80;99.90;;;;;;5056011;28;20112;-63
2022/06/05 00:42:48;;;;;;;12.07;9.20;;;17.80;99.90;;;;;;5063118;28;20036;-64
2022/06/05 00:45:14;;;;;;;15.07;9.35;;;17.90;99.90;;;;;;5053713;28;20066;-64
2022/06/05 00:47:43;;;;;;;13.05;8.85;;;17.90;99.90;;;;;;5062512;28;20028;-64
2022/06/05 00:50:19;;;;;;;8.70;7.68;;;17.90;99.90;;;;;;5062360;28;20020;-64
2022/06/05 00:52:48;;;;;;;11.32;8.80;;;18.00;99.90;;;;;;5060810;28;20025;-64
2022/06/05 00:55:15;;;;;;;13.35;8.52;;;18.10;99.90;;;;;;5060532;28;20039;-64
2022/06/05 00:57:41;;;;;;;12.40;8.13;;;18.10;99.90;;;;;;5061590;28;20145;-65
2022/06/05 01:00:18;;;;;;;13.57;7.85;;;18.10;99.90;;;;;;5056140;28;20149;-64
2022/06/05 01:02:48;;;;;;;9.65;7.93;;;18.10;99.90;;;;;;5056363;28;20028;-64
2022/06/05 01:05:15;;;;;;;12.15;7.93;;;18.10;99.90;;;;;;5056640;28;20494;-64
2022/06/05 01:07:42;;;;;;;9.18;7.28;;;18.00;99.90;;;;;;5059924;28;20074;-64
2022/06/05 01:10:10;;;;;;;8.73;7.50;;;18.10;99.90;;;;;;5056539;28;20368;-64
2022/06/05 01:12:56;;;;;;;8.25;7.35;;;18.10;99.90;;;;;;5066084;28;20427;-64
2022/06/05 01:15:50;;;;;;;10.35;7.68;;;18.20;99.90;;;;;;5056433;28;20103;-64
2022/06/05 01:18:38;;;;;;;10.38;7.70;;;18.10;99.90;;;;;;5056716;28;20066;-64
2022/06/05 01:21:32;;;;;;;10.73;8.38;;;18.00;99.90;;;;;;5061540;28;20024;-64
2022/06/05 01:24:43;;;;;;;9.68;7.68;;;18.00;99.90;;;;;;5058415;28;20036;-64
2022/06/05 01:27:14;;;;;;;9.02;7.95;;;18.00;99.90;;;;;;5056216;28;20033;-64
2022/06/05 01:29:53;;;;;;;10.05;7.78;;;18.00;99.90;;;;;;5064061;28;20020;-64
2022/06/05 01:32:31;;;;;;;10.88;7.80;;;18.00;99.90;;;;;;5065578;28;20036;-64
2022/06/05 01:35:01;;;;;;;9.00;7.97;;;18.00;99.90;;;;;;5065433;28;20029;-64
2022/06/05 01:37:42;;;;;;;12.60;8.55;;;18.00;99.90;;;;;;5063513;28;20105;-64
2022/06/05 01:40:29;;;;;;;13.00;7.95;;;17.90;99.90;;;;;;5062212;28;20021;-64
2022/06/05 01:43:03;;;;;;;10.60;7.70;;;17.90;99.90;;;;;;5062569;28;20027;-64
2022/06/05 01:45:52;;;;;;;12.25;8.60;;;17.90;99.90;;;;;;5058964;28;20035;-63
2022/06/05 01:48:23;;;;;;;8.35;7.45;;;17.80;99.90;;;;;;5058240;28;20040;-64
2022/06/05 01:50:54;;;;;;;9.55;7.57;;;17.80;99.90;;;;;;5058626;28;20526;-64
2022/06/05 01:53:37;;;;;;;8.88;7.97;;;17.90;99.90;;;;;;5054133;28;20041;-64
2022/06/05 01:56:08;;;;;;;13.32;8.43;;;17.90;99.90;;;;;;5059234;28;20024;-64
2022/06/05 01:59:01;;;;;;;9.68;7.60;;;17.80;99.90;;;;;;5060719;28;20021;-64
2022/06/05 02:01:34;;;;;;;8.95;7.07;;;17.90;99.90;;;;;;5058689;28;20490;-64
2022/06/05 02:04:08;;;;;;;8.40;7.40;;;17.90;99.90;;;;;;5060477;28;20037;-64
2022/06/05 02:07:06;;;;;;;11.65;6.85;;;17.90;99.90;;;;;;5060784;28;20406;-64
2022/06/05 02:09:40;;;;;;;7.28;6.35;;;17.90;99.90;;;;;;5057570;28;20083;-64
2022/06/05 02:12:08;;;;;;;9.57;6.57;;;17.90;99.90;;;;;;5058242;28;20096;-64
2022/06/05 02:14:34;;;;;;;7.80;5.68;;;17.90;99.90;;;;;;5059621;28;20814;-64
2022/06/05 02:17:00;;;;;;;7.45;6.43;;;17.90;99.90;;;;;;5056146;28;20058;-64
2022/06/05 02:19:26;;;;;;;6.85;5.43;;;18.00;99.90;;;;;;5062965;28;20104;-64
2022/06/05 02:21:58;;;;;;;10.50;6.63;;;18.00;99.90;;;;;;5056912;28;20103;-64
2022/06/05 02:24:24;;;;;;;8.88;6.38;;;18.00;99.90;;;;;;5057682;28;20029;-64
2022/06/05 02:26:49;;;;;;;7.32;6.55;;;18.00;99.90;;;;;;5061393;28;20162;-64
2022/06/05 02:29:25;;;;;;;6.65;5.78;;;18.10;99.90;;;;;;5055858;28;20021;-62
2022/06/05 02:32:28;;;;;;;7.07;6.38;;;18.00;99.90;;;;;;5053006;28;20082;-62
2022/06/05 02:35:15;;;;;;;6.63;6.03;;;18.10;99.90;;;;;;5061265;28;20120;-63
2022/06/05 02:38:06;;;;;;;7.38;5.95;;;18.10;99.90;;;;;;5063269;28;20025;-63
2022/06/05 02:40:40;;;;;;;9.15;5.95;;;18.00;99.90;;;;;;5032366;28;20124;-63
2022/06/05 02:43:20;;;;;;;7.20;5.80;;;18.10;99.90;;;;;;5062913;28;20368;-63
2022/06/05 02:46:03;;;;;;;8.82;5.82;;;18.00;99.90;;;;;;5057574;28;20029;-64
2022/06/05 02:48:35;;;;;;;7.00;6.25;;;18.00;99.90;;;;;;5058583;28;20025;-63
2022/06/05 02:51:35;;;;;;;6.72;5.85;;;18.00;99.90;;;;;;5057361;28;20398;-63
2022/06/05 02:54:01;;;;;;;6.72;5.20;;;18.00;99.90;;;;;;5049341;28;20051;-63
2022/06/05 02:56:28;;;;;;;8.88;5.70;;;17.90;99.90;;;;;;5057174;28;20032;-63
2022/06/05 02:58:57;;;;;;;6.05;5.25;;;18.00;99.90;;;;;;5064093;28;20078;-63
2022/06/05 03:04:10;;;;;;;6.45;5.78;;;18.00;99.90;;;;;;5063257;28;20052;-63
2022/06/05 03:06:37;;;;;;;8.00;6.22;;;18.00;99.90;;;;;;5063027;28;20036;-63
2022/06/05 03:09:03;;;;;;;6.72;5.78;;;18.00;99.90;;;;;;5067326;28;20028;-64
2022/06/05 03:11:29;;;;;;;9.20;5.55;;;18.00;99.90;;;;;;5057457;28;20025;-64
2022/06/05 03:13:57;;;;;;;8.30;5.38;;;18.00;99.90;;;;;;5058557;28;20074;-63
2022/06/05 03:16:23;;;;;;;9.63;5.45;;;18.00;99.90;;;;;;5053797;28;20017;-63
2022/06/05 03:18:49;;;;;;;7.75;6.32;;;18.00;99.90;;;;;;5058793;28;20547;-63
2022/06/05 03:21:15;;;;;;;6.13;5.53;;;18.00;99.90;;;;;;5052872;28;20061;-64
2022/06/05 03:23:40;;;;;;;7.60;6.18;;;17.90;99.90;;;;;;5060295;28;20032;-63
2022/06/05 03:26:09;;;;;;;9.07;5.55;;;17.90;99.90;;;;;;5060299;28;20040;-64
2022/06/05 03:28:35;;;;;;;8.77;6.05;;;18.00;99.90;;;;;;5061671;28;20056;-64
2022/06/05 03:31:04;;;;;;;6.43;5.72;;;18.00;99.90;;;;;;5062360;28;20063;-64
2022/06/05 03:33:30;;;;;;;10.45;6.18;;;18.00;99.90;;;;;;5063364;28;20017;-64
2022/06/05 03:35:55;;;;;;;8.35;6.05;;;17.90;99.90;;;;;;5065054;28;20052;-64
2022/06/05 03:38:21;;;;;;;7.85;6.55;;;18.00;99.90;;;;;;5062051;28;20036;-63
2022/06/05 03:40:46;;;;;;;7.20;5.43;;;18.00;99.90;;;;;;5056925;28;20059;-63
2022/06/05 03:43:13;;;;;;;6.03;5.43;;;18.00;99.90;;;;;;5055887;28;20048;-63
2022/06/05 03:45:39;;;;;;;7.35;5.28;;;18.00;99.90;;;;;;5057950;28;20032;-63
2022/06/05 03:48:05;;;;;;;9.32;5.75;;;18.00;99.90;;;;;;5051342;28;20099;-63
2022/06/05 03:50:31;;;;;;;7.03;6.32;;;18.00;99.90;;;;;;5062430;28;20068;-63
2022/06/05 03:52:57;;;;;;;7.18;5.75;;;18.00;99.90;;;;;;5057890;28;20049;-63
2022/06/05 03:55:23;;;;;;;6.68;5.45;;;18.10;99.90;;;;;;5064687;28;20060;-63
2022/06/05 03:57:49;;;;;;;5.75;5.03;;;18.10;99.90;;;;;;5053623;28;20083;-63
2022/06/05 04:00:17;;;;;;;11.40;5.80;;;18.10;99.90;;;;;;5052433;28;20021;-63
2022/06/05 04:02:43;;;;;;;8.93;5.65;;;18.20;99.90;;;;;;5060732;28;20490;-63
2022/06/05 04:05:13;;;;;;;5.07;4.60;;;18.30;99.90;;;;;;5064904;28;20073;-64
2022/06/05 04:07:39;;;;;;;6.45;5.53;;;18.30;99.90;;;;;;5063614;28;20047;-63
2022/06/05 04:10:05;;;;;;;6.50;5.80;;;18.30;99.90;;;;;;5059805;28;20024;-63
2022/06/05 04:12:31;;;;;;;7.15;5.22;;;18.30;99.90;;;;;;5057165;28;20065;-64
2022/06/05 04:15:00;;;;;;;8.15;5.38;;;18.30;99.90;;;;;;5064092;28;20477;-63
2022/06/05 04:17:25;;;;;;;7.63;5.70;;;18.30;99.90;;;;;;5061433;28;20078;-64
2022/06/05 04:19:54;;;;;;;6.72;5.88;;;18.40;99.90;;;;;;5061994;28;20879;-63
2022/06/05 04:22:20;;;;;;;8.35;5.97;;;18.30;99.90;;;;;;5060453;28;20024;-64
2022/06/05 04:24:45;;;;;;;6.90;5.00;;;18.40;99.90;;;;;;5056236;28;20028;-63
2022/06/05 04:27:11;;;;;;;5.55;5.05;;;18.40;99.90;;;;;;5055285;28;20025;-64
2022/06/05 04:29:37;;;;;;;5.50;4.93;;;18.40;99.90;;;;;;5059179;28;20029;-64
2022/06/05 04:32:02;;;;;;;6.25;5.40;;;18.40;99.90;;;;;;5055605;28;20051;-63
2022/06/05 04:34:28;;;;;;;6.78;5.43;;;18.40;99.90;;;;;;5068624;28;20168;-64
2022/06/05 04:36:54;;;;;;;6.95;5.72;;;18.40;99.90;;;;;;5057888;28;20553;-64
2022/06/05 04:39:20;;;;;;;6.63;5.90;;;18.50;99.90;;;;;;5062555;28;20032;-64
2022/06/05 04:41:46;;;;;;;6.60;5.45;;;18.50;99.90;;;;;;5061016;28;20404;-64
2022/06/05 04:44:14;;;;;;;9.23;5.97;;;18.50;99.90;;;;;;5064684;28;20040;-65
2022/06/05 04:46:39;;;;;;;5.93;5.32;;;18.60;99.90;;;;;;5057509;28;20105;-65
2022/06/05 04:49:07;;;;;;;8.45;5.28;;;18.60;99.90;;;;;;5064142;28;20079;-62
2022/06/05 04:51:36;;;;;;;6.15;5.55;;;18.60;99.90;;;;;;5066641;28;20530;-63
2022/06/05 04:56:44;;;;;;;11.55;5.60;;;18.70;99.90;;;;;;5062875;28;20059;-62
2022/06/05 04:59:11;;;;;;;6.68;5.70;;;18.70;99.90;;;;;;5064062;28;20033;-62
2022/06/05 05:01:39;;;;;;;6.30;5.18;;;18.70;99.90;;;;;;5049379;28;20432;-63
2022/06/05 05:04:07;;;;;;;7.05;5.60;;;18.70;99.90;;;;;;5063410;28;20130;-63
2022/06/05 05:06:34;;;;;;;6.75;5.47;;;18.70;99.90;;;;;;5063678;28;20036;-62
2022/06/05 05:09:00;;;;;;;5.95;5.28;;;18.70;99.90;;;;;;5065940;28;20075;-63
2022/06/05 05:11:27;;;;;;;10.73;5.45;;;18.80;99.90;;;;;;5062663;28;20426;-62
2022/06/05 05:13:54;;;;;;;9.13;5.50;;;18.80;99.90;;;;;;5063506;28;20672;-62
2022/06/05 05:16:20;;;;;;;8.00;5.53;;;18.70;99.90;;;;;;5063610;28;20043;-63
2022/06/05 05:18:45;;;;;;;7.15;5.60;;;18.70;99.90;;;;;;5063192;28;20475;-68
2022/06/05 05:21:17;;;;;;;9.82;6.00;;;18.70;99.90;;;;;;5067376;28;20020;-62
2022/06/05 05:23:44;;;;;;;10.05;5.22;;;18.70;99.90;;;;;;5061590;28;20024;-63
2022/06/05 05:26:13;;;;;;;5.95;5.40;;;18.80;99.90;;;;;;5064486;28;20020;-62
2022/06/05 05:28:40;;;;;;;6.43;5.25;;;18.80;99.90;;;;;;5059763;28;20062;-63
2022/06/05 05:31:11;;;;;;;7.15;6.03;;;18.80;99.90;;;;;;5060282;28;20047;-62
2022/06/05 05:33:38;;;;;;;8.30;6.22;;;18.80;99.90;;;;;;5062491;28;20033;-62
2022/06/05 05:36:05;;;;;;;6.63;5.72;;;18.80;99.90;;;;;;5063633;28;20059;-65
2022/06/05 05:38:30;;;;;;;9.68;6.45;;;18.80;99.90;;;;;;5049702;28;20024;-65
2022/06/05 05:43:40;;;;;;;7.90;5.93;;;18.80;99.90;;;;;;5059200;28;20456;-62
2022/06/05 05:46:13;;;;;;;7.20;5.50;;;18.80;99.90;;;;;;5056891;28;20033;-62
2022/06/05 05:48:39;;;;;;;7.35;5.43;;;18.90;99.90;;;;;;5068411;28;20103;-62
2022/06/05 05:51:15;;;;;;;6.35;5.57;;;18.90;99.90;;;;;;5056454;28;20025;-62
2022/06/05 05:53:41;;;;;;;10.57;5.75;;;18.90;99.90;;;;;;5064237;28;20037;-62
2022/06/05 05:56:09;;;;;;;7.28;6.03;;;18.90;99.90;;;;;;5062935;28;20028;-61
2022/06/05 05:58:36;;;;;;;8.05;5.80;;;19.00;99.90;;;;;;5065035;28;20029;-64
2022/06/05 06:01:05;;;;;;;7.07;5.90;;;19.00;99.90;;;;;;5068230;28;20047;-64
2022/06/05 06:03:30;;;;;;;8.57;5.93;;;19.00;99.90;;;;;;5054564;28;20070;-67
2022/06/05 06:05:58;;;;;;;10.25;5.45;;;19.10;99.90;;;;;;5051130;28;20067;-62
2022/06/05 06:08:24;;;;;;;12.00;6.68;;;19.10;99.90;;;;;;5066075;28;20024;-62
2022/06/05 06:10:50;;;;;;;8.20;6.57;;;19.10;99.90;;;;;;5059903;28;20025;-60
2022/06/05 06:13:15;;;;;;;7.15;5.90;;;19.10;99.90;;;;;;5055344;28;20075;-62
2022/06/05 06:15:41;;;;;;;9.27;7.45;;;19.10;99.90;;;;;;5056912;28;20066;-65
2022/06/05 06:18:06;;;;;;;8.52;6.35;;;19.10;99.90;;;;;;5061745;28;20104;-62
2022/06/05 06:20:32;;;;;;;9.73;7.05;;;19.10;99.90;;;;;;5065858;28;20508;-62
2022/06/05 06:22:57;;;;;;;8.10;6.22;;;19.20;99.90;;;;;;5059879;28;20374;-64
2022/06/05 06:25:23;;;;;;;8.43;6.15;;;19.20;99.90;;;;;;5065554;28;20021;-61
2022/06/05 06:27:48;;;;;;;8.88;6.97;;;19.30;99.90;;;;;;5066754;28;20424;-62
2022/06/05 06:30:14;;;;;;;7.45;6.68;;;19.30;99.90;;;;;;5059421;28;20070;-63
2022/06/05 06:32:39;;;;;;;9.80;7.10;;;19.40;99.90;;;;;;5062097;28;20016;-62
2022/06/05 06:35:05;;;;;;;7.68;6.47;;;19.30;99.90;;;;;;5063557;28;20874;-62
2022/06/05 06:37:31;;;;;;;7.75;6.72;;;19.30;99.90;;;;;;5059629;28;20025;-59
2022/06/05 06:39:57;;;;;;;7.57;6.35;;;19.40;99.90;;;;;;5066296;28;20077;-62
2022/06/05 06:42:22;;;;;;;8.43;6.30;;;19.40;99.90;;;;;;5062011;28;20032;-59
2022/06/05 06:44:48;;;;;;;9.00;6.97;;;19.40;99.90;;;;;;5066879;28;20040;-61
2022/06/05 06:47:13;;;;;;;8.18;7.15;;;19.40;99.90;;;;;;5065268;28;20020;-63
2022/06/05 06:49:39;;;;;;;7.88;6.22;;;19.40;99.90;;;;;;5064484;28;20025;-61
2022/06/05 06:52:05;;;;;;;10.25;6.13;;;19.50;99.90;;;;;;5062182;28;20040;-62
2022/06/05 06:54:31;;;;;;;9.30;6.80;;;19.50;99.90;;;;;;5061942;28;20498;-63
2022/06/05 06:56:56;;;;;;;6.65;6.05;;;19.50;99.90;;;;;;5070119;28;20041;-62
2022/06/05 06:59:23;;;;;;;9.00;7.03;;;19.60;99.90;;;;;;5067714;28;20070;-63
2022/06/05 07:01:49;;;;;;;7.78;6.60;;;19.70;99.90;;;;;;5061323;28;20029;-63
2022/06/05 07:04:17;;;;;;;9.50;6.70;;;19.70;99.90;;;;;;5065513;28;20044;-63
2022/06/05 07:06:43;;;;;;;7.82;6.55;;;19.70;99.90;;;;;;5057205;28;20021;-62
2022/06/05 07:09:08;;;;;;;8.90;6.32;;;19.80;99.90;;;;;;5065499;28;20028;-62
2022/06/05 07:11:34;;;;;;;7.68;6.88;;;19.90;99.90;;;;;;5060407;28;20402;-63
2022/06/05 07:14:00;;;;;;;7.55;6.75;;;19.90;99.90;;;;;;5065231;28;20025;-62
2022/06/05 07:16:26;;;;;;;8.63;6.85;;;19.90;99.90;;;;;;5064580;28;20484;-63
2022/06/05 07:18:51;;;;;;;9.73;7.45;;;19.80;99.90;;;;;;5061833;28;20027;-63
2022/06/05 07:21:23;;;;;;;10.02;6.88;;;19.90;99.90;;;;;;5058800;28;20027;-62
2022/06/05 07:23:49;;;;;;;9.77;6.93;;;20.00;99.90;;;;;;5059102;28;20061;-61
2022/06/05 07:26:19;;;;;;;12.15;6.95;;;20.10;99.90;;;;;;5069926;28;20036;-64
2022/06/05 07:28:45;;;;;;;9.00;6.68;;;20.20;99.90;;;;;;5065841;28;20021;-62
2022/06/05 07:31:13;;;;;;;7.75;6.60;;;20.20;99.90;;;;;;5063347;28;20031;-61
2022/06/05 07:33:39;;;;;;;7.22;6.25;;;20.30;99.90;;;;;;5068962;28;20074;-62
2022/06/05 07:36:09;;;;;;;6.20;5.63;;;20.30;99.90;;;;;;5067842;28;20064;-63
2022/06/05 07:38:35;;;;;;;8.95;6.68;;;20.30;99.90;;;;;;5069998;28;20064;-62
2022/06/05 07:41:01;;;;;;;12.60;6.72;;;20.40;99.90;;;;;;5062623;28;20043;-64
2022/06/05 07:43:27;;;;;;;9.32;6.45;;;20.50;99.90;;;;;;5066628;28;20535;-62
2022/06/05 07:45:53;;;;;;;8.70;6.40;;;20.50;99.90;;;;;;5063176;28;20112;-64
2022/06/05 07:48:19;;;;;;;10.60;7.20;;;20.60;99.90;;;;;;5070918;28;20013;-62
2022/06/05 07:56:14;;;;;;;8.48;7.30;;;20.70;99.90;;;;;;5060863;28;20035;-65
2022/06/05 07:58:39;;;;;;;7.22;6.53;;;20.70;99.90;;;;;;5065531;28;20557;-63
2022/06/05 08:01:07;;;;;;;8.07;7.00;;;20.70;99.90;;;;;;5066140;28;20688;-59
2022/06/05 08:03:33;;;;;;;8.30;7.40;;;20.80;99.90;;;;;;5065387;28;20106;-62
2022/06/05 08:05:59;;;;;;;7.88;7.05;;;20.60;99.90;;;;;;5059812;28;20032;-62
2022/06/05 08:08:25;;;;;;;8.07;7.28;;;20.50;99.90;;;;;;5067997;28;20040;-64
2022/06/05 08:10:50;;;;;;;7.75;6.72;;;20.40;99.90;;;;;;5066800;28;20040;-63
2022/06/05 08:13:16;;;;;;;8.70;7.80;;;20.40;99.90;;;;;;5066497;28;20041;-61
2022/06/05 08:15:45;;;;;;;8.20;7.25;;;20.30;99.90;;;;;;5068523;28;20402;-63
2022/06/05 08:18:11;;;;;;;13.23;8.15;;;20.30;99.90;;;;;;5068335;28;20028;-59
2022/06/05 08:20:37;;;;;;;10.20;7.72;;;20.40;99.90;;;;;;5059087;28;20046;-61
2022/06/05 08:23:02;;;;;;;8.82;7.00;;;20.20;99.90;;;;;;5042612;28;20028;-60
2022/06/05 08:25:28;;;;;;;12.52;7.63;;;20.20;99.90;;;;;;5060900;28;20453;-58
2022/06/05 08:27:53;;;;;;;8.43;7.30;;;20.20;99.90;;;;;;5060958;28;20099;-61
2022/06/05 08:30:19;;;;;;;11.20;8.10;;;20.10;99.90;;;;;;5064664;28;20036;-57
2022/06/05 08:32:45;;;;;;;9.35;7.15;;;20.10;99.90;;;;;;5059723;28;20021;-58
2022/06/05 08:35:11;;;;;;;10.85;7.43;;;20.10;99.90;;;;;;5063746;28;20029;-59
2022/06/05 08:43:32;;;;;;;10.65;7.10;;;20.10;99.90;;;;;;5063070;28;20032;-58
2022/06/05 08:46:20;;;;;;;8.50;7.65;;;20.10;99.90;;;;;;5066722;28;20048;-60
2022/06/05 08:49:08;;;;;;;9.70;8.18;;;20.10;99.90;;;;;;5065015;28;20116;-56
2022/06/05 08:51:36;;;;;;;9.60;7.95;;;20.10;99.90;;;;;;5058122;28;20033;-58
2022/06/05 08:54:13;;;;;;;8.77;7.78;;;20.20;99.90;;;;;;5064233;28;20024;-58
2022/06/05 08:56:42;;;;;;;10.77;8.27;;;20.20;99.90;;;;;;5062292;28;20108;-53
2022/06/05 08:59:26;;;;;;;13.02;8.90;;;20.20;99.90;;;;;;5061338;28;20486;-57
2022/06/05 09:01:58;;;;;;;9.98;8.95;;;20.10;99.90;;;;;;5060400;28;20037;-54
2022/06/05 09:04:55;;;;;;;11.00;9.55;;;20.10;99.90;;;;;;5062145;28;20052;-56
2022/06/05 09:07:27;;;;;;;10.25;9.13;;;19.90;99.90;;;;;;5060640;28;20025;-57
2022/06/05 09:10:33;;;;;;;12.52;9.05;;;19.80;99.90;;;;;;5060433;28;20033;-59
2022/06/05 09:13:44;;;;;;;12.55;9.95;;;19.60;99.90;;;;;;5059195;28;20200;-56
2022/06/05 09:16:22;;;;;;;14.73;11.07;;;19.40;99.90;;;;;;5062714;28;20032;-54
2022/06/05 09:18:48;;;;;;;12.10;10.27;;;19.20;99.90;;;;;;5057897;28;20025;-57
2022/06/05 09:21:39;;;;;;;16.23;11.52;;;19.10;99.90;;;;;;5057574;28;20127;-53
2022/06/05 09:24:19;;;;;;;16.42;12.00;;;19.00;99.90;;;;;;5063199;28;20037;-57
2022/06/05 09:27:02;;;;;;;18.23;13.60;;;18.90;99.90;;;;;;5062460;28;20039;-61
2022/06/05 09:29:44;;;;;;;18.95;14.18;;;18.80;99.90;;;;;;5058165;28;20090;-59
2022/06/05 09:32:29;;;;;;;22.08;14.93;;;18.90;99.90;;;;;;5059058;28;20021;-63
2022/06/05 09:35:05;;;;;;;18.35;15.43;;;18.90;99.90;;;;;;5058674;28;20024;-62
2022/06/05 09:37:51;;;;;;;21.40;15.00;;;18.80;99.90;;;;;;5061880;28;20041;-60
2022/06/05 09:40:37;;;;;;;19.27;15.38;;;18.90;99.90;;;;;;5058547;28;20039;-63
2022/06/05 09:43:25;;;;;;;22.40;16.67;;;18.70;99.90;;;;;;5061449;28;20161;-61
2022/06/05 09:46:15;;;;;;;23.75;17.73;;;18.90;99.90;;;;;;5060228;28;20077;-61
2022/06/05 09:49:16;;;;;;;22.73;17.60;;;18.80;99.90;;;;;;5066217;28;20511;-59
2022/06/05 09:51:44;;;;;;;20.48;17.02;;;18.80;99.90;;;;;;5050809;28;20037;-58
2022/06/05 09:54:31;;;;;;;23.65;17.98;;;18.90;99.90;;;;;;5058476;28;20017;-61
2022/06/05 10:00:13;;;;;;;22.48;16.90;;;18.70;99.90;;;;;;5063517;28;20027;-57
2022/06/05 10:02:38;;;;;;;23.10;17.77;;;18.70;99.90;;;;;;5067403;28;20033;-56
2022/06/05 10:05:20;;;;;;;23.50;19.25;;;18.70;99.90;;;;;;5061831;28;20028;-59
2022/06/05 10:07:52;;;;;;;22.83;17.55;;;18.70;99.90;;;;;;5058349;28;20410;-61
2022/06/05 10:10:23;;;;;;;22.38;18.23;;;18.70;99.90;;;;;;5067115;28;20017;-53
2022/06/05 10:12:55;;;;;;;20.95;17.38;;;18.70;99.90;;;;;;5067945;28;20025;-54
2022/06/05 10:15:32;;;;;;;26.15;18.95;;;18.70;99.90;;;;;;5063745;28;20029;-61
2022/06/05 10:18:03;;;;;;;28.38;19.13;;;18.60;99.90;;;;;;5064434;28;20025;-59
2022/06/05 10:20:34;;;;;;;25.50;18.73;;;18.60;99.90;;;;;;5067076;28;20029;-59
2022/06/05 10:23:09;;;;;;;23.70;18.38;;;18.50;99.90;;;;;;5064979;28;20078;-57
2022/06/05 10:26:13;;;;;;;27.13;19.17;;;18.60;99.90;;;;;;5068734;28;20036;-57
2022/06/05 10:28:42;;;;;;;24.23;18.77;;;18.70;99.90;;;;;;5057633;28;20494;-55
2022/06/05 10:31:28;;;;;;;29.63;19.40;;;18.60;99.90;;;;;;5067112;28;20067;-59
2022/06/05 10:34:11;;;;;;;25.95;20.55;;;18.70;99.90;;;;;;5062742;28;20016;-55
2022/06/05 10:37:02;;;;;;;28.73;20.83;;;18.90;99.90;;;;;;5058783;28;20100;-57
2022/06/05 10:40:06;;;;;;;25.35;19.33;;;19.00;99.90;;;;;;5069921;28;20036;-60
2022/06/05 10:43:23;;;;;;;25.33;19.70;;;19.10;99.90;;;;;;5062250;28;20025;-62
2022/06/05 10:45:55;;;;;;;26.52;18.70;;;19.40;99.90;;;;;;5011462;28;20063;-57
2022/06/05 10:48:41;;;;;;;23.52;19.30;;;20.00;99.90;;;;;;5063859;28;20029;-59
2022/06/05 10:51:32;;;;;;;22.50;17.45;;;20.40;99.90;;;;;;5047516;28;20231;-57
2022/06/05 10:54:20;;;;;;;18.33;14.90;;;20.60;99.90;;;;;;5067346;28;20092;-57
2022/06/05 10:56:58;;;;;;;17.60;13.63;;;21.00;99.90;;;;;;5064412;28;20048;-61
2022/06/05 10:59:47;;;;;;;17.20;14.20;;;21.30;99.90;;;;;;5068018;28;20078;-64
2022/06/05 11:02:46;;;;;;;15.98;13.63;;;21.70;99.90;;;;;;5057020;28;20096;-61
2022/06/05 11:06:06;;;;;;;13.48;12.07;;;21.90;99.90;;;;;;5062930;28;20040;-63
2022/06/05 11:08:59;;;;;;;12.77;11.48;;;21.20;99.90;;;;;;4978252;28;20026;-64
2022/06/05 11:14:28;;;;;;;14.63;12.07;;;20.90;99.90;;;;;;5065774;28;20505;-63
2022/06/05 11:17:00;;;;;;;14.63;12.20;;;20.60;99.90;;;;;;5061237;28;20032;-63
2022/06/05 11:19:54;;;;;;;15.68;12.70;;;20.40;99.90;;;;;;5068235;28;20017;-62
2022/06/05 11:22:21;;;;;;;18.58;12.55;;;20.60;99.90;;;;;;5065769;28;20024;-63
2022/06/05 11:24:48;;;;;;;13.23;11.43;;;21.00;99.90;;;;;;5067281;28;20100;-62
2022/06/05 11:27:27;;;;;;;14.32;11.90;;;21.20;99.90;;;;;;5062097;28;20025;-62
2022/06/05 11:30:10;;;;;;;12.40;10.70;;;21.10;99.90;;;;;;5042571;28;20021;-62
2022/06/05 11:32:50;;;;;;;14.05;11.43;;;21.30;99.90;;;;;;5061802;28;20115;-64
2022/06/05 11:35:34;;;;;;;14.48;12.07;;;21.60;99.90;;;;;;5068805;28;20055;-62
2022/06/05 11:38:23;;;;;;;10.35;9.27;;;22.00;99.90;;;;;;5062757;28;20763;-64
2022/06/05 11:41:15;;;;;;;12.73;10.35;;;22.00;99.90;;;;;;5066488;28;20079;-59
2022/06/05 11:43:41;;;;;;;15.65;10.65;;;22.30;99.90;;;;;;5060934;28;20032;-64
2022/06/05 11:46:20;;;;;;;10.50;9.45;;;22.30;99.90;;;;;;5063689;28;20090;-58
2022/06/05 11:49:10;;;;;;;11.13;10.02;;;22.10;99.90;;;;;;5068233;28;20047;-63
2022/06/05 11:52:07;;;;;;;13.23;10.70;;;21.80;99.90;;;;;;5066795;28;20170;-60
2022/06/05 11:55:15;;;;;;;11.38;10.10;;;21.50;99.90;;;;;;5059276;28;20032;-65
2022/06/05 11:58:00;;;;;;;10.30;9.30;;;21.60;99.90;;;;;;5036055;28;20347;-57
2022/06/05 12:00:50;;;;;;;12.30;9.85;;;21.50;99.90;;;;;;5056817;28;20452;-62
2022/06/05 12:03:30;;;;;;;12.20;9.30;;;21.40;99.90;;;;;;5062197;28;20029;-62
2022/06/05 12:06:24;;;;;;;13.38;9.23;;;21.50;99.90;;;;;;5059972;28;20048;-62
2022/06/05 12:08:56;;;;;;;11.05;9.65;;;21.40;99.90;;;;;;5059575;28;20111;-62
2022/06/05 12:11:25;;;;;;;11.77;8.73;;;21.40;99.90;;;;;;5055791;28;20028;-62
2022/06/05 12:13:54;;;;;;;15.30;9.60;;;21.30;99.90;;;;;;5058020;28;20084;-63
2022/06/05 12:16:27;;;;;;;13.98;10.32;;;21.40;99.90;;;;;;5060110;28;20226;-63
2022/06/05 12:19:05;;;;;;;10.48;9.38;;;21.50;99.90;;;;;;5047640;28;20033;-65
2022/06/05 12:21:43;;;;;;;17.85;9.73;;;21.60;99.90;;;;;;5048387;28;20028;-59
2022/06/05 12:24:23;;;;;;;9.32;8.35;;;21.70;99.90;;;;;;5057674;28;20024;-64
2022/06/05 12:26:59;;;;;;;9.25;8.27;;;21.80;99.90;;;;;;5059562;28;20021;-63
2022/06/05 12:29:35;;;;;;;11.93;8.23;;;21.80;99.90;;;;;;5059855;28;20123;-63
2022/06/05 12:32:09;;;;;;;8.13;7.25;;;21.70;99.90;;;;;;5059468;28;20119;-64
2022/06/05 12:35:00;;;;;;;8.95;8.05;;;21.70;99.90;;;;;;5061809;28;20056;-62
2022/06/05 12:38:10;;;;;;;8.93;7.70;;;21.80;99.90;;;;;;5061961;28;20079;-60
2022/06/05 12:40:38;;;;;;;9.38;8.38;;;22.00;99.90;;;;;;5002998;28;20089;-63
2022/06/05 12:43:19;;;;;;;8.82;7.95;;;22.00;99.90;;;;;;5057175;28;20522;-56
2022/06/05 12:45:47;;;;;;;10.45;8.38;;;22.20;99.90;;;;;;5055090;28;20123;-62
2022/06/05 12:48:25;;;;;;;11.77;8.95;;;22.20;99.90;;;;;;5057080;28;20043;-60
2022/06/05 12:51:12;;;;;;;9.75;8.73;;;22.30;99.90;;;;;;5056787;28;20028;-61
2022/06/05 12:54:08;;;;;;;10.25;9.25;;;22.50;99.90;;;;;;5060810;28;20675;-60
2022/06/05 12:56:43;;;;;;;9.93;8.45;;;22.40;99.90;;;;;;5059121;28;20031;-64
2022/06/05 12:59:30;;;;;;;11.55;7.85;;;22.10;99.90;;;;;;5056717;28;20021;-65
2022/06/05 13:02:25;;;;;;;14.32;9.50;;;21.90;99.90;;;;;;5060577;28;20197;-61
2022/06/05 13:05:04;;;;;;;12.38;10.25;;;21.70;99.90;;;;;;5052975;28;20033;-62
2022/06/05 13:07:53;;;;;;;11.45;9.65;;;21.40;99.90;;;;;;5052150;28;20021;-59
2022/06/05 13:10:41;;;;;;;11.05;8.70;;;21.30;99.90;;;;;;5055566;28;20095;-62
2022/06/05 13:13:46;;;;;;;9.40;8.45;;;21.30;99.90;;;;;;5054267;28;20449;-61
2022/06/05 13:16:17;;;;;;;;;;;21.30;99.90;;;;;;5044447;28;20119;-63
2022/06/05 13:18:52;;;;;;;9.82;8.82;;;21.20;99.90;;;;;;5057180;28;19920;-63
2022/06/05 13:21:27;;;;;;;12.23;9.00;;;21.10;99.90;;;;;;5061837;28;20029;-65
2022/06/05 13:24:23;;;;;;;10.50;9.35;;;21.10;99.90;;;;;;5059713;28;20410;-62
2022/06/05 13:27:23;;;;;;;11.80;9.20;;;21.10;99.90;;;;;;5057307;28;20031;-63
2022/06/05 13:29:58;;;;;;;10.65;9.38;;;20.90;99.90;;;;;;5049187;28;20078;-65
2022/06/05 13:32:52;;;;;;;14.48;9.95;;;20.90;99.90;;;;;;5057885;28;20051;-63
2022/06/05 13:35:30;;;;;;;13.10;9.53;;;20.80;99.90;;;;;;5053888;28;20625;-65
2022/06/05 13:38:02;;;;;;;9.68;8.45;;;20.80;99.90;;;;;;5054934;28;20649;-65
2022/06/05 13:40:42;;;;;;;13.57;10.05;;;20.80;99.90;;;;;;5054739;28;20027;-64
2022/06/05 13:43:18;;;;;;;10.18;9.15;;;20.80;99.90;;;;;;5052682;28;20021;-64